Time;durP1;ratioP1;P1;durP2;ratioP2;P2;SDS_P1;SDS_P2;PMS_P1;PMS_P2;Temp;Humidity;BMP_temperature;BMP_pressure;BME280_temperature;BME280_humidity;BME280_pressure;Samples;Min_cycle;Max_cycle;Signal;HPM_P1;HPM_P2
2023/10/24 00:02:56;;;;;;;11.65;10.45;;;;;;;;;;12633981;23;20034;-69
2023/10/24 00:07:53;;;;;;;14.98;11.13;;;;;;;;;;12634334;23;20044;-69
2023/10/24 00:12:49;;;;;;;11.88;10.65;;;;;;;;;;12634109;23;20470;-69
2023/10/24 00:17:46;;;;;;;13.68;12.20;;;;;;;;;;12633747;23;20027;-69
2023/10/24 00:22:42;;;;;;;13.07;11.77;;;;;;;;;;12630995;23;20029;-68
2023/10/24 00:27:39;;;;;;;14.20;12.70;;;;;;;;;;12636755;23;20533;-68
2023/10/24 00:32:35;;;;;;;13.88;12.48;;;;;;;;;;12636822;23;20032;-70
2023/10/24 00:37:32;;;;;;;17.17;13.30;;;;;;;;;;12633036;23;20479;-70
2023/10/24 00:42:28;;;;;;;15.45;13.85;;;;;;;;;;12638847;23;20035;-70
2023/10/24 00:47:25;;;;;;;15.43;13.07;;;;;;;;;;12632285;23;20024;-70
2023/10/24 00:52:21;;;;;;;18.73;12.75;;;;;;;;;;12637916;23;20032;-70
2023/10/24 00:57:17;;;;;;;15.32;13.82;;;;;;;;;;12637809;23;20107;-70
2023/10/24 01:02:14;;;;;;;18.80;13.38;;;;;;;;;;12636336;23;20531;-70
2023/10/24 01:07:10;;;;;;;17.00;14.85;;;;;;;;;;12637231;23;20498;-69
2023/10/24 01:12:07;;;;;;;19.30;14.05;;;;;;;;;;12636501;23;20087;-69
2023/10/24 01:17:10;;;;;;;14.93;13.52;;;;;;;;;;12637870;23;20141;-69
2023/10/24 01:22:06;;;;;;;16.42;14.70;;;;;;;;;;12637205;23;20028;-69
2023/10/24 01:27:03;;;;;;;15.88;14.20;;;;;;;;;;12636466;23;20028;-69
2023/10/24 01:31:59;;;;;;;15.00;12.90;;;;;;;;;;12637173;23;20029;-70
2023/10/24 01:36:56;;;;;;;14.23;12.73;;;;;;;;;;12630358;23;20032;-70
2023/10/24 01:41:52;;;;;;;15.13;13.63;;;;;;;;;;12634096;23;20035;-69
2023/10/24 01:46:49;;;;;;;14.52;13.07;;;;;;;;;;12635278;23;20074;-69
2023/10/24 01:51:45;;;;;;;15.20;13.70;;;;;;;;;;12635760;23;20487;-70
2023/10/24 01:56:42;;;;;;;16.25;13.00;;;;;;;;;;12631822;23;20024;-70
2023/10/24 02:01:38;;;;;;;15.15;13.75;;;;;;;;;;12635539;23;20029;-71
2023/10/24 02:06:35;;;;;;;14.70;13.27;;;;;;;;;;12635731;23;20075;-69
2023/10/24 02:11:31;;;;;;;15.00;13.40;;;;;;;;;;12635097;23;20024;-69
2023/10/24 02:16:28;;;;;;;16.88;14.02;;;;;;;;;;12609603;23;20029;-69
2023/10/24 02:21:24;;;;;;;15.18;13.70;;;;;;;;;;12635994;23;20029;-70
2023/10/24 02:26:21;;;;;;;14.90;13.40;;;;;;;;;;12629517;23;20028;-69
2023/10/24 02:31:17;;;;;;;16.55;13.25;;;;;;;;;;12635858;23;20035;-69
2023/10/24 02:36:15;;;;;;;14.45;12.95;;;;;;;;;;12636025;23;20024;-69
2023/10/24 02:41:11;;;;;;;14.45;12.95;;;;;;;;;;12629530;23;20020;-70
2023/10/24 02:46:07;;;;;;;13.80;12.50;;;;;;;;;;12634867;23;20031;-69
2023/10/24 02:51:04;;;;;;;14.70;13.00;;;;;;;;;;12635514;23;20021;-71
2023/10/24 02:56:02;;;;;;;13.95;12.38;;;;;;;;;;12635845;23;20028;-71
2023/10/24 03:01:04;;;;;;;13.02;11.75;;;;;;;;;;12634435;23;20414;-70
2023/10/24 03:06:00;;;;;;;13.57;12.37;;;;;;;;;;12635802;23;20313;-70
2023/10/24 03:10:56;;;;;;;14.35;12.93;;;;;;;;;;12635261;23;21039;-69
2023/10/24 03:15:53;;;;;;;13.80;12.50;;;;;;;;;;12633878;23;20536;-69
2023/10/24 03:20:49;;;;;;;15.10;13.60;;;;;;;;;;12636032;23;20025;-68
2023/10/24 03:25:45;;;;;;;16.25;14.52;;;;;;;;;;12608747;23;20405;-68
2023/10/24 03:30:43;;;;;;;15.68;13.77;;;;;;;;;;12629001;23;20092;-69
2023/10/24 03:35:39;;;;;;;17.92;14.07;;;;;;;;;;12635085;23;20527;-70
2023/10/24 03:40:37;;;;;;;15.63;14.10;;;;;;;;;;12634181;23;20027;-70
2023/10/24 03:45:36;;;;;;;16.23;14.52;;;;;;;;;;12627504;23;20021;-70
2023/10/24 03:50:37;;;;;;;18.00;16.23;;;;;;;;;;12633446;23;20024;-69
2023/10/24 03:55:33;;;;;;;22.13;16.50;;;;;;;;;;12634885;23;20115;-70
2023/10/24 04:00:30;;;;;;;18.35;16.08;;;;;;;;;;12637092;23;20021;-69
2023/10/24 04:05:26;;;;;;;17.60;15.32;;;;;;;;;;12638829;23;20021;-68
2023/10/24 04:10:23;;;;;;;17.65;15.80;;;;;;;;;;12638314;23;20103;-69
2023/10/24 04:15:19;;;;;;;18.90;16.65;;;;;;;;;;12637640;23;20023;-68
2023/10/24 04:20:18;;;;;;;17.42;15.70;;;;;;;;;;12611976;23;20023;-68
2023/10/24 04:25:15;;;;;;;17.35;15.50;;;;;;;;;;12636801;23;20052;-69
2023/10/24 04:30:12;;;;;;;17.17;15.48;;;;;;;;;;12637025;23;20020;-69
2023/10/24 04:35:08;;;;;;;18.70;16.23;;;;;;;;;;12631980;23;20021;-69
2023/10/24 04:40:06;;;;;;;18.45;16.48;;;;;;;;;;12637823;23;20039;-69
2023/10/24 04:45:03;;;;;;;17.60;15.90;;;;;;;;;;12636750;23;20140;-69
2023/10/24 04:50:00;;;;;;;19.05;15.77;;;;;;;;;;12631246;23;20021;-71
2023/10/24 04:54:56;;;;;;;16.25;14.38;;;;;;;;;;12636629;23;20409;-71
2023/10/24 04:59:52;;;;;;;18.00;16.27;;;;;;;;;;12610209;23;20028;-71
2023/10/24 05:04:49;;;;;;;18.23;15.68;;;;;;;;;;12636559;23;20031;-71
2023/10/24 05:09:45;;;;;;;17.73;16.17;;;;;;;;;;12633834;23;20031;-74
2023/10/24 05:27:27;;;;;;;18.63;16.75;;;;;;;;;;12602757;22;20020;-74
2023/10/24 05:33:21;;;;;;;;;;;;;;;;;;;;;
2023/10/24 05:57:05;;;;;;;19.52;17.45;;;;;;;;;;12631861;22;20024;-73
2023/10/24 06:02:01;;;;;;;18.58;16.25;;;;;;;;;;12660286;23;20098;-73
2023/10/24 06:06:58;;;;;;;19.02;16.10;;;;;;;;;;12670450;23;20028;-73
2023/10/24 06:11:54;;;;;;;18.27;16.27;;;;;;;;;;12696205;23;20574;-73
2023/10/24 06:16:51;;;;;;;17.70;16.13;;;;;;;;;;12697089;22;20028;-73
2023/10/24 06:21:47;;;;;;;17.95;16.05;;;;;;;;;;12696036;23;20046;-73
2023/10/24 06:26:43;;;;;;;22.17;17.05;;;;;;;;;;12695065;22;20028;-73
2023/10/24 06:31:40;;;;;;;20.23;16.23;;;;;;;;;;12695270;23;20099;-74
2023/10/24 06:36:36;;;;;;;20.45;16.77;;;;;;;;;;12696232;22;20094;-74
2023/10/24 06:41:33;;;;;;;20.05;18.17;;;;;;;;;;12689928;23;20028;-73
2023/10/24 06:46:29;;;;;;;20.13;17.42;;;;;;;;;;12691075;22;20055;-71
2023/10/24 06:51:26;;;;;;;19.80;17.77;;;;;;;;;;12695020;23;20055;-74
2023/10/24 06:57:09;;;;;;;;;;;;;;;;;;;;;
2023/10/24 07:09:26;;;;;;;;;;;;;;;;;;;;;
2023/10/24 07:26:40;;;;;;;22.85;20.30;;;;;;;;;;12440522;22;20351;-74
2023/10/24 07:31:37;;;;;;;21.60;19.50;;;;;;;;;;12633835;23;20051;-74
2023/10/24 07:36:34;;;;;;;22.25;20.27;;;;;;;;;;12632632;23;20055;-74
2023/10/24 07:41:31;;;;;;;20.95;18.75;;;;;;;;;;12634652;23;20035;-73
2023/10/24 07:53:18;;;;;;;21.35;19.35;;;;;;;;;;12426635;23;20703;-74
2023/10/24 08:04:51;;;;;;;;;;;;;;;;;;;;;
2023/10/24 08:17:37;;;;;;;;;;;;;;;;;;;;;
2023/10/24 08:58:35;;;;;;;;;;;;;;;;;;;;;
2023/10/24 09:04:18;;;;;;;20.20;18.02;;;;;;;;;;12630027;23;20020;-74
2023/10/24 09:22:34;;;;;;;;;;;;;;;;;;;;;
2023/10/24 09:28:18;;;;;;;20.30;18.25;;;;;;;;;;12416694;23;20014;-74
2023/10/24 09:51:22;;;;;;;20.83;18.60;;;;;;;;;;12641351;22;20017;-74
2023/10/24 10:03:14;;;;;;;;;;;;;;;;;;;;;
2023/10/24 10:19:22;;;;;;;20.67;18.47;;;;;;;;;;12583358;23;20048;-73
2023/10/24 10:42:45;;;;;;;19.92;17.92;;;;;;;;;;12610379;23;20100;-73
2023/10/24 10:47:41;;;;;;;20.60;18.45;;;;;;;;;;12635547;23;20459;-73
2023/10/24 10:52:50;;;;;;;21.73;19.83;;;;;;;;;;12635800;23;20407;-73
2023/10/24 10:58:11;;;;;;;21.20;19.40;;;;;;;;;;12632456;22;20104;-73
2023/10/24 11:03:34;;;;;;;21.20;18.92;;;;;;;;;;12635094;23;20508;-73
2023/10/24 11:08:32;;;;;;;22.00;19.42;;;;;;;;;;12573909;23;20498;-73
2023/10/24 11:13:44;;;;;;;20.30;18.30;;;;;;;;;;12567688;23;20029;-73
2023/10/24 11:18:41;;;;;;;18.20;16.53;;;;;;;;;;12574389;23;20083;-72
2023/10/24 11:29:17;;;;;;;20.23;17.23;;;;;;;;;;12640190;22;20044;-73
2023/10/24 11:34:22;;;;;;;22.27;20.00;;;;;;;;;;12634569;23;20021;-73
2023/10/24 11:39:19;;;;;;;22.30;17.80;;;;;;;;;;12634647;23;20087;-73
2023/10/24 11:49:37;;;;;;;23.35;19.08;;;;;;;;;;12640454;22;20017;-73
2023/10/24 11:54:36;;;;;;;18.98;17.13;;;;;;;;;;12634496;23;20051;-73
2023/10/24 11:59:36;;;;;;;18.30;16.70;;;;;;;;;;12633032;23;20021;-73
2023/10/24 12:15:52;;;;;;;16.27;14.75;;;;;;;;;;12403927;23;20021;-73
2023/10/24 12:20:49;;;;;;;17.17;15.43;;;;;;;;;;12564597;23;20025;-73
2023/10/24 12:25:45;;;;;;;18.40;16.58;;;;;;;;;;12576868;23;20094;-73
2023/10/24 12:30:41;;;;;;;17.92;16.23;;;;;;;;;;12576428;23;20024;-73
2023/10/24 12:35:41;;;;;;;19.02;17.05;;;;;;;;;;12575958;23;20028;-73
2023/10/24 12:40:40;;;;;;;23.60;16.95;;;;;;;;;;12575835;23;20052;-73
2023/10/24 12:46:00;;;;;;;16.30;14.63;;;;;;;;;;12613998;22;20082;-72
2023/10/24 12:50:57;;;;;;;17.60;16.00;;;;;;;;;;12630402;23;20056;-72
2023/10/24 12:55:53;;;;;;;18.33;16.38;;;;;;;;;;12637949;23;20028;-72
2023/10/24 13:00:50;;;;;;;19.27;16.10;;;;;;;;;;12638111;23;20020;-72
2023/10/24 13:06:05;;;;;;;17.35;15.73;;;;;;;;;;12643331;22;20051;-73
2023/10/24 13:11:04;;;;;;;17.88;16.10;;;;;;;;;;12658363;23;20024;-73
2023/10/24 13:21:49;;;;;;;16.80;15.20;;;;;;;;;;12613623;22;20391;-74
2023/10/24 13:26:45;;;;;;;17.48;15.65;;;;;;;;;;12636302;23;20073;-74
2023/10/24 13:31:42;;;;;;;17.35;15.75;;;;;;;;;;12636118;23;20470;-74
2023/10/24 14:00:39;;;;;;;17.05;15.18;;;;;;;;;;12621804;23;20017;-74
2023/10/24 14:05:36;;;;;;;19.00;17.02;;;;;;;;;;12636205;23;20024;-73
2023/10/24 14:10:32;;;;;;;20.55;17.33;;;;;;;;;;12635043;23;20020;-73
2023/10/24 14:15:28;;;;;;;17.52;15.85;;;;;;;;;;12635716;23;20025;-73
2023/10/24 14:20:26;;;;;;;17.63;14.70;;;;;;;;;;12634471;23;20020;-73
2023/10/24 14:25:39;;;;;;;15.63;14.20;;;;;;;;;;12615162;22;20053;-73
2023/10/24 14:49:01;;;;;;;19.65;16.05;;;;;;;;;;12265397;23;20094;-73
2023/10/24 15:17:50;;;;;;;;;;;;;;;;;;;;;
2023/10/24 15:23:09;;;;;;;16.75;15.13;;;;;;;;;;12495260;23;20017;-73
2023/10/24 15:28:05;;;;;;;17.83;16.00;;;;;;;;;;12566051;23;20467;-73
2023/10/24 15:33:02;;;;;;;17.58;15.55;;;;;;;;;;12573723;23;20017;-73
2023/10/24 15:38:12;;;;;;;16.67;15.27;;;;;;;;;;12642133;22;20029;-73
2023/10/24 15:43:26;;;;;;;18.05;16.25;;;;;;;;;;12602381;23;20052;-73
2023/10/24 15:48:22;;;;;;;17.92;15.90;;;;;;;;;;12634490;23;20108;-73
2023/10/24 15:53:19;;;;;;;20.95;17.15;;;;;;;;;;12627489;23;20422;-72
2023/10/24 15:58:16;;;;;;;18.05;16.17;;;;;;;;;;12634891;23;20035;-70
2023/10/24 16:03:13;;;;;;;19.67;16.17;;;;;;;;;;12639286;23;20416;-71
2023/10/24 16:08:09;;;;;;;19.65;16.13;;;;;;;;;;12638305;23;20024;-72
2023/10/24 16:13:06;;;;;;;22.30;16.20;;;;;;;;;;12638524;23;20112;-72
2023/10/24 16:18:03;;;;;;;20.95;15.38;;;;;;;;;;12638772;23;20024;-72
2023/10/24 16:23:00;;;;;;;17.10;15.25;;;;;;;;;;12638299;23;20046;-72
2023/10/24 16:27:56;;;;;;;16.30;14.80;;;;;;;;;;12638577;23;20025;-72
2023/10/24 16:32:53;;;;;;;17.33;15.20;;;;;;;;;;12631473;23;20024;-70
2023/10/24 16:37:49;;;;;;;17.65;16.05;;;;;;;;;;12638380;23;20024;-70
2023/10/24 16:42:45;;;;;;;17.75;16.05;;;;;;;;;;12638420;23;20080;-71
2023/10/24 16:47:42;;;;;;;17.17;15.52;;;;;;;;;;12611586;23;20020;-70
2023/10/24 16:52:38;;;;;;;18.23;16.30;;;;;;;;;;12637506;23;20079;-70
2023/10/24 16:57:35;;;;;;;17.05;15.45;;;;;;;;;;12630807;23;20025;-70
2023/10/24 17:02:31;;;;;;;17.42;15.70;;;;;;;;;;12629901;23;20024;-72
2023/10/24 17:07:28;;;;;;;21.00;15.52;;;;;;;;;;12633594;23;20480;-72
2023/10/24 17:12:25;;;;;;;18.42;16.73;;;;;;;;;;12630222;23;20343;-72
2023/10/24 17:28:32;;;;;;;19.52;17.52;;;;;;;;;;12645983;22;20025;-71
2023/10/24 17:33:31;;;;;;;17.05;15.35;;;;;;;;;;12640578;23;20021;-71
2023/10/24 17:38:31;;;;;;;18.42;16.60;;;;;;;;;;12641406;23;20024;-72
2023/10/24 17:43:31;;;;;;;18.98;17.17;;;;;;;;;;12640879;23;20024;-72
2023/10/24 17:48:28;;;;;;;17.40;15.60;;;;;;;;;;12641091;23;20021;-72
2023/10/24 17:53:27;;;;;;;16.30;14.77;;;;;;;;;;12633149;23;20020;-72
2023/10/24 17:58:24;;;;;;;18.25;16.58;;;;;;;;;;12639329;23;20021;-72
2023/10/24 18:03:21;;;;;;;18.83;16.90;;;;;;;;;;12664243;23;20095;-72
2023/10/24 18:08:18;;;;;;;18.02;16.13;;;;;;;;;;12641239;23;20017;-72
2023/10/24 18:13:14;;;;;;;18.15;16.45;;;;;;;;;;12639948;23;20028;-72
2023/10/24 18:18:14;;;;;;;17.33;15.90;;;;;;;;;;12663674;22;20056;-73
2023/10/24 18:23:11;;;;;;;17.40;15.80;;;;;;;;;;12647388;23;20032;-71
2023/10/24 18:28:09;;;;;;;17.80;15.93;;;;;;;;;;12636245;23;20023;-72
2023/10/24 18:33:05;;;;;;;17.20;15.60;;;;;;;;;;12633382;23;20025;-73
2023/10/24 18:38:33;;;;;;;;;;;;;;;;;;;;;
2023/10/24 18:43:50;;;;;;;18.05;16.13;;;;;;;;;;12624052;23;20506;-72
2023/10/24 18:48:47;;;;;;;18.17;15.70;;;;;;;;;;12632866;23;20024;-73
2023/10/24 18:53:43;;;;;;;18.63;16.35;;;;;;;;;;12635196;23;20417;-73
2023/10/24 18:58:40;;;;;;;16.70;15.10;;;;;;;;;;12633493;23;20024;-72
2023/10/24 19:03:36;;;;;;;19.45;15.02;;;;;;;;;;12610015;23;20033;-71
2023/10/24 19:08:33;;;;;;;16.02;14.50;;;;;;;;;;12623045;23;20020;-72
2023/10/24 19:13:33;;;;;;;17.10;15.38;;;;;;;;;;12619691;23;20097;-69
2023/10/24 19:18:30;;;;;;;15.82;14.40;;;;;;;;;;12630480;23;20036;-69
2023/10/24 19:23:27;;;;;;;15.88;13.38;;;;;;;;;;12633322;23;20466;-66
2023/10/24 19:28:24;;;;;;;15.57;13.90;;;;;;;;;;12634194;23;20020;-67
2023/10/24 19:33:20;;;;;;;15.02;13.68;;;;;;;;;;12635297;23;20602;-67
2023/10/24 19:38:18;;;;;;;15.85;14.13;;;;;;;;;;12635001;23;20059;-69
2023/10/24 19:43:14;;;;;;;20.08;13.88;;;;;;;;;;12633546;23;20075;-69
2023/10/24 19:48:15;;;;;;;14.50;13.07;;;;;;;;;;12631034;23;20638;-69
2023/10/24 19:53:12;;;;;;;15.07;13.68;;;;;;;;;;12633693;23;20558;-69
2023/10/24 19:58:09;;;;;;;15.30;14.00;;;;;;;;;;12633786;23;20059;-68
2023/10/24 20:03:06;;;;;;;15.80;13.30;;;;;;;;;;12633803;23;20059;-69
2023/10/24 20:08:04;;;;;;;15.52;13.95;;;;;;;;;;12627442;23;20485;-69
2023/10/24 20:13:01;;;;;;;14.90;13.43;;;;;;;;;;12630948;23;20438;-69
2023/10/24 20:18:00;;;;;;;14.07;12.82;;;;;;;;;;12627639;23;20485;-69
2023/10/24 20:22:57;;;;;;;15.20;13.82;;;;;;;;;;12632690;23;20024;-69
2023/10/24 20:27:53;;;;;;;14.73;13.23;;;;;;;;;;12633702;23;20025;-68
2023/10/24 20:32:51;;;;;;;18.65;13.63;;;;;;;;;;12633633;23;20027;-69
2023/10/24 20:37:47;;;;;;;14.63;13.27;;;;;;;;;;12634128;23;20107;-69
2023/10/24 20:42:43;;;;;;;14.88;13.52;;;;;;;;;;12636188;23;20025;-69
2023/10/24 20:47:40;;;;;;;14.00;12.80;;;;;;;;;;12638062;23;20067;-69
2023/10/24 20:52:36;;;;;;;14.63;13.13;;;;;;;;;;12638117;23;20166;-68
2023/10/24 20:57:33;;;;;;;15.35;13.77;;;;;;;;;;12636258;23;20025;-72
2023/10/24 21:02:29;;;;;;;14.63;12.48;;;;;;;;;;12636919;23;20033;-69
2023/10/24 21:07:26;;;;;;;14.13;12.93;;;;;;;;;;12637943;23;20020;-69
2023/10/24 21:12:22;;;;;;;17.42;14.00;;;;;;;;;;12635805;23;20581;-68
2023/10/24 21:17:19;;;;;;;13.95;12.70;;;;;;;;;;12635928;23;20033;-68
2023/10/24 21:22:15;;;;;;;14.57;13.07;;;;;;;;;;12631646;23;20049;-68
2023/10/24 21:27:12;;;;;;;15.23;13.93;;;;;;;;;;12637839;23;20021;-68
2023/10/24 21:32:09;;;;;;;15.73;14.05;;;;;;;;;;12636994;23;20651;-68
2023/10/24 21:37:05;;;;;;;16.98;15.40;;;;;;;;;;12636469;23;20075;-68
2023/10/24 21:42:02;;;;;;;19.50;14.85;;;;;;;;;;12636192;23;20131;-69
2023/10/24 21:46:58;;;;;;;16.10;14.73;;;;;;;;;;12635920;23;20103;-68
2023/10/24 21:51:55;;;;;;;17.40;15.60;;;;;;;;;;12636852;23;20029;-68
2023/10/24 21:56:51;;;;;;;17.05;15.65;;;;;;;;;;12637247;23;20083;-69
2023/10/24 22:01:51;;;;;;;19.00;17.05;;;;;;;;;;12636242;23;20024;-67
2023/10/24 22:06:47;;;;;;;19.52;17.83;;;;;;;;;;12636912;23;20024;-68
2023/10/24 22:11:43;;;;;;;17.60;15.95;;;;;;;;;;12637092;23;20522;-69
2023/10/24 22:16:40;;;;;;;19.38;15.80;;;;;;;;;;12636624;23;20521;-69
2023/10/24 22:21:36;;;;;;;18.35;16.75;;;;;;;;;;12635648;23;20090;-69
2023/10/24 22:26:32;;;;;;;19.33;17.55;;;;;;;;;;12630745;23;20603;-69
2023/10/24 22:31:29;;;;;;;19.00;17.25;;;;;;;;;;12635783;23;20146;-70
2023/10/24 22:36:25;;;;;;;20.30;18.40;;;;;;;;;;12633891;23;20489;-68
2023/10/24 22:41:21;;;;;;;19.90;18.10;;;;;;;;;;12637660;23;20067;-69
2023/10/24 22:46:18;;;;;;;17.23;15.70;;;;;;;;;;12635823;23;20455;-69
2023/10/24 22:51:14;;;;;;;19.35;17.52;;;;;;;;;;12636720;23;20128;-69
2023/10/24 22:56:10;;;;;;;18.05;16.25;;;;;;;;;;12637087;23;20020;-69
2023/10/24 23:01:10;;;;;;;17.80;15.95;;;;;;;;;;12636031;23;20020;-69
2023/10/24 23:06:06;;;;;;;17.67;16.05;;;;;;;;;;12636002;23;20031;-69
2023/10/24 23:11:03;;;;;;;18.13;16.25;;;;;;;;;;12633359;23;20472;-69
2023/10/24 23:16:03;;;;;;;17.35;15.80;;;;;;;;;;12635538;23;20034;-68
2023/10/24 23:20:59;;;;;;;19.75;16.17;;;;;;;;;;12636604;23;20078;-69
2023/10/24 23:25:55;;;;;;;21.67;16.52;;;;;;;;;;12636347;23;20493;-69
2023/10/24 23:30:52;;;;;;;17.40;15.60;;;;;;;;;;12629693;23;20024;-67
2023/10/24 23:35:48;;;;;;;20.35;16.42;;;;;;;;;;12635265;23;20075;-69
2023/10/24 23:40:46;;;;;;;17.15;15.55;;;;;;;;;;12635574;23;20030;-70
2023/10/24 23:45:42;;;;;;;18.50;16.80;;;;;;;;;;12635897;23;20020;-71
2023/10/24 23:50:39;;;;;;;18.13;15.35;;;;;;;;;;12635416;23;20056;-71
2023/10/24 23:55:38;;;;;;;18.63;16.25;;;;;;;;;;12635259;23;20025;-71
